createdAt,value
2019-03-23T00:00:17.654Z,6.53
2019-03-23T00:05:21.392Z,7.20
2019-03-23T00:10:24.461Z,7.03
2019-03-23T00:15:27.539Z,6.43
2019-03-23T00:20:30.938Z,6.40
2019-03-23T00:25:34.630Z,6.93
2019-03-23T00:30:38.029Z,7.70
2019-03-23T00:35:41.373Z,7.27
2019-03-23T00:40:44.459Z,7.73
2019-03-23T00:45:47.798Z,7.33
2019-03-23T00:50:51.500Z,7.00
2019-03-23T00:55:54.897Z,7.65
2019-03-23T01:00:58.259Z,7.80
2019-03-23T01:06:01.658Z,8.40
2019-03-23T01:11:05.399Z,7.97
2019-03-23T01:16:09.084Z,7.47
2019-03-23T01:21:12.511Z,7.90
2019-03-23T01:26:15.945Z,8.00
2019-03-23T01:31:19.405Z,8.60
2019-03-23T01:36:22.887Z,10.07
2019-03-23T01:41:26.204Z,12.40
2019-03-23T01:46:29.995Z,13.40
2019-03-23T01:51:33.091Z,13.73
2019-03-23T01:56:36.586Z,14.93
2019-03-23T02:01:40.261Z,15.67
2019-03-23T02:06:43.638Z,14.83
2019-03-23T02:11:47.003Z,11.83
2019-03-23T02:16:50.651Z,11.53
2019-03-23T02:21:53.736Z,10.78
2019-03-23T02:26:57.417Z,10.67
2019-03-23T02:32:00.952Z,11.07
2019-03-23T02:37:04.649Z,10.67
2019-03-23T02:42:07.724Z,10.47
2019-03-23T02:47:10.799Z,10.37
2019-03-23T02:52:14.598Z,10.83
2019-03-23T02:57:18.010Z,10.30
2019-03-23T03:02:21.427Z,9.40
2019-03-23T03:07:24.740Z,9.13
2019-03-23T03:12:28.078Z,9.53
2019-03-23T03:17:31.761Z,9.43
2019-03-23T03:22:34.845Z,10.00
2019-03-23T03:27:37.938Z,10.77
2019-03-23T03:32:41.037Z,11.30
2019-03-23T03:37:55.830Z,13.77
2019-03-23T03:42:49.758Z,20.23
2019-03-23T03:47:53.610Z,24.40
2019-03-23T03:52:56.758Z,24.90
2019-03-23T03:58:00.514Z,27.83
2019-03-23T04:03:03.995Z,29.37
2019-03-23T04:08:11.777Z,31.63
2019-03-23T04:13:12.816Z,31.97
2019-03-23T04:18:16.222Z,37.37
2019-03-23T04:23:19.659Z,44.23
2019-03-23T04:28:23.074Z,52.43
2019-03-23T04:33:26.157Z,54.63
2019-03-23T04:38:29.882Z,60.23
2019-03-23T04:43:33.296Z,70.13
2019-03-23T04:48:36.623Z,62.73
2019-03-23T04:53:39.710Z,65.37
2019-03-23T04:58:43.368Z,66.27
2019-03-23T05:03:46.460Z,63.43
2019-03-23T05:08:49.881Z,61.07
2019-03-23T05:13:53.338Z,57.70
2019-03-23T05:18:57.114Z,59.73
2019-03-23T05:24:00.530Z,57.33
2019-03-23T05:29:03.967Z,58.93
2019-03-23T05:34:07.410Z,59.17
2019-03-23T05:39:10.824Z,60.43
2019-03-23T05:44:14.282Z,63.00
2019-03-23T05:49:17.410Z,63.07
2019-03-23T05:54:20.517Z,65.07
2019-03-23T05:59:23.987Z,64.97
2019-03-23T06:04:27.455Z,66.97
2019-03-23T06:09:30.871Z,70.53
2019-03-23T06:14:34.274Z,69.67
2019-03-23T06:19:37.359Z,70.73
2019-03-23T06:24:40.695Z,69.70
2019-03-23T06:29:44.219Z,71.97
2019-03-23T06:34:47.531Z,71.87
2019-03-23T06:39:50.623Z,69.90
2019-03-23T06:44:53.730Z,69.93
2019-03-23T06:49:57.151Z,64.40
2019-03-23T06:55:00.736Z,63.30
2019-03-23T07:00:07.164Z,65.67
2019-03-23T07:05:10.962Z,67.13
2019-03-23T07:10:14.902Z,68.50
2019-03-23T07:15:20.174Z,66.77
2019-03-23T07:20:42.391Z,73.00
2019-03-23T07:25:45.748Z,70.17
2019-03-23T07:30:49.158Z,73.07
2019-03-23T07:35:52.506Z,72.90
2019-03-23T07:40:56.196Z,72.80
2019-03-23T07:46:00.291Z,71.57
2019-03-23T07:51:04.008Z,71.03
2019-03-23T07:56:07.099Z,71.90
2019-03-23T08:01:10.747Z,69.60
2019-03-23T08:06:14.419Z,71.33
2019-03-23T08:11:17.566Z,70.00
2019-03-23T08:16:21.235Z,68.30
2019-03-23T08:21:24.559Z,62.63
2019-03-23T08:26:27.651Z,61.83
2019-03-23T08:31:30.740Z,61.10
2019-03-23T08:36:34.153Z,58.27
2019-03-23T08:41:37.481Z,59.70
2019-03-23T08:46:41.131Z,59.33
2019-03-23T08:51:44.228Z,56.10
2019-03-23T08:56:47.305Z,58.60
2019-03-23T09:01:50.772Z,57.40
2019-03-23T09:06:54.415Z,58.47
2019-03-23T09:11:58.089Z,56.10
2019-03-23T09:17:01.435Z,57.47
2019-03-23T09:22:04.866Z,56.73
2019-03-23T09:27:07.976Z,55.97
2019-03-23T09:32:11.309Z,55.73
2019-03-23T09:37:16.577Z,54.70
2019-03-23T09:42:20.026Z,53.50
2019-03-23T09:47:23.116Z,53.87
2019-03-23T09:52:26.558Z,55.50
2019-03-23T09:57:30.025Z,57.87
2019-03-23T10:02:33.679Z,60.03
2019-03-23T10:07:37.095Z,57.77
2019-03-23T10:12:40.179Z,58.10
2019-03-23T10:17:43.733Z,59.77
2019-03-23T10:22:46.818Z,58.50
2019-03-23T10:27:50.240Z,58.13
2019-03-23T10:32:53.678Z,57.98
2019-03-23T10:37:57.329Z,60.23
2019-03-23T10:43:00.751Z,60.73
2019-03-23T10:48:03.916Z,57.50
2019-03-23T10:53:07.243Z,59.67
2019-03-23T10:58:10.562Z,59.50
2019-03-23T11:03:13.977Z,58.87
2019-03-23T11:08:17.623Z,57.57
2019-03-23T11:13:21.889Z,56.77
2019-03-23T11:18:25.537Z,58.80
2019-03-23T11:23:28.970Z,56.10
2019-03-23T11:28:32.297Z,58.03
2019-03-23T11:33:35.724Z,56.73
2019-03-23T11:38:39.161Z,57.30
2019-03-23T11:43:42.806Z,57.23
2019-03-23T11:48:46.228Z,58.43
2019-03-23T11:53:49.902Z,57.90
2019-03-23T11:58:53.976Z,59.73
2019-03-23T12:03:57.574Z,57.57
2019-03-23T12:09:00.992Z,59.23
2019-03-23T12:14:04.138Z,58.50
2019-03-23T12:19:07.809Z,56.43
2019-03-23T12:24:11.476Z,54.43
2019-03-23T12:29:14.602Z,57.07
2019-03-23T12:34:18.033Z,55.13
2019-03-23T12:39:21.116Z,56.70
2019-03-23T12:44:24.551Z,56.97
2019-03-23T12:49:27.859Z,55.57
2019-03-23T12:54:31.280Z,57.13
2019-03-23T12:59:34.380Z,58.15
2019-03-23T13:04:37.459Z,59.17
2019-03-23T13:09:40.887Z,57.97
2019-03-23T13:14:44.557Z,59.67
2019-03-23T13:19:48.212Z,58.97
2019-03-23T13:24:51.895Z,58.90
2019-03-23T13:29:54.982Z,58.03
2019-03-23T13:34:58.325Z,58.57
2019-03-23T13:40:01.900Z,59.47
2019-03-23T13:45:07.046Z,58.67
2019-03-23T13:50:11.332Z,57.73
2019-03-23T13:55:27.535Z,56.13
2019-03-23T14:00:30.875Z,58.90
2019-03-23T14:05:34.716Z,57.17
2019-03-23T14:10:38.051Z,54.90
2019-03-23T14:15:42.201Z,52.47
2019-03-23T14:20:45.532Z,52.13
2019-03-23T14:26:07.965Z,48.60
2019-03-23T14:31:11.212Z,46.80
2019-03-23T14:36:17.204Z,46.70
2019-03-23T14:41:20.612Z,46.03
2019-03-23T14:46:23.935Z,45.67
2019-03-23T14:51:27.609Z,45.63
2019-03-23T14:56:31.969Z,45.80
2019-03-23T15:01:35.813Z,41.47
2019-03-23T15:06:39.494Z,42.53
2019-03-23T15:11:43.143Z,43.63
2019-03-23T15:16:46.478Z,43.27
2019-03-23T15:21:49.896Z,47.07
2019-03-23T15:26:53.551Z,44.63
2019-03-23T15:31:56.646Z,44.43
2019-03-23T15:37:00.063Z,44.53
2019-03-23T15:42:03.174Z,44.67
2019-03-23T15:47:06.606Z,45.97
2019-03-23T15:52:10.304Z,44.17
2019-03-23T15:57:13.644Z,44.07
2019-03-23T16:02:17.067Z,43.67
2019-03-23T16:07:29.317Z,45.83
2019-03-23T16:12:34.286Z,43.60
2019-03-23T16:17:29.791Z,44.03
2019-03-23T16:22:33.460Z,43.17
2019-03-23T16:27:37.118Z,44.97
2019-03-23T16:32:40.599Z,47.47
2019-03-23T16:37:43.940Z,46.10
2019-03-23T16:42:47.268Z,47.93
2019-03-23T16:47:50.716Z,47.27
2019-03-23T16:52:54.393Z,46.10
2019-03-23T16:57:58.312Z,45.78
2019-03-23T17:03:01.917Z,47.03
2019-03-23T17:08:05.081Z,46.63
2019-03-23T17:13:08.606Z,51.83
2019-03-23T17:18:11.743Z,48.80
2019-03-23T17:23:14.904Z,47.63
2019-03-23T17:28:18.323Z,46.13
2019-03-23T17:33:21.823Z,46.97
2019-03-23T17:38:25.492Z,47.33
2019-03-23T17:43:28.634Z,45.47
2019-03-23T17:48:32.084Z,46.03
2019-03-23T17:53:35.854Z,46.10
2019-03-23T17:58:39.549Z,46.23
2019-03-23T18:03:42.650Z,46.23
2019-03-23T18:08:46.990Z,47.07
2019-03-23T18:13:50.659Z,48.43
2019-03-23T18:18:54.094Z,47.60
2019-03-23T18:23:57.455Z,47.13
2019-03-23T18:29:00.906Z,44.83
2019-03-23T18:34:04.673Z,45.47
2019-03-23T18:39:08.127Z,46.93
2019-03-23T18:44:16.028Z,47.13
2019-03-23T18:49:17.318Z,53.87
2019-03-23T18:54:20.775Z,46.30
2019-03-23T18:59:27.076Z,47.40
2019-03-23T19:04:30.375Z,48.23
2019-03-23T19:09:34.163Z,45.00
2019-03-23T19:14:37.270Z,47.27
2019-03-23T19:19:40.380Z,47.60
2019-03-23T19:24:43.504Z,45.80
2019-03-23T19:29:46.810Z,48.37
2019-03-23T19:34:50.328Z,49.87
2019-03-23T19:39:53.777Z,51.47
2019-03-23T19:44:57.232Z,47.97
2019-03-23T19:50:00.726Z,51.43
2019-03-23T19:55:06.700Z,50.17
2019-03-23T20:00:12.099Z,49.07
2019-03-23T20:05:16.005Z,50.13
2019-03-23T20:10:19.207Z,48.97
2019-03-23T20:15:22.526Z,49.83
2019-03-23T20:20:26.395Z,50.23
2019-03-23T20:25:30.192Z,49.27
2019-03-23T20:30:33.914Z,47.47
2019-03-23T20:35:37.801Z,48.07
2019-03-23T20:40:41.214Z,46.97
2019-03-23T20:45:44.855Z,48.63
2019-03-23T20:50:48.046Z,46.50
2019-03-23T20:55:51.723Z,47.90
2019-03-23T21:00:55.130Z,48.33
2019-03-23T21:05:58.495Z,45.87
2019-03-23T21:11:01.577Z,46.23
2019-03-23T21:16:05.408Z,47.07
2019-03-23T21:21:09.080Z,45.48
2019-03-23T21:26:12.764Z,46.73
2019-03-23T21:31:16.137Z,45.63
2019-03-23T21:36:19.572Z,45.17
2019-03-23T21:41:23.001Z,45.00
2019-03-23T21:46:26.398Z,46.23
2019-03-23T21:51:29.919Z,47.00
2019-03-23T21:56:33.040Z,48.67
2019-03-23T22:01:36.528Z,49.47
2019-03-23T22:06:40.696Z,47.67
2019-03-23T22:11:44.665Z,47.83
2019-03-23T22:16:49.106Z,46.40
2019-03-23T22:21:52.196Z,46.97
2019-03-23T22:26:55.303Z,45.47
2019-03-23T22:31:58.628Z,48.87
2019-03-23T22:37:01.725Z,51.53
2019-03-23T22:42:04.797Z,51.77
2019-03-23T22:47:08.220Z,51.77
2019-03-23T22:52:11.706Z,51.57
2019-03-23T22:57:14.795Z,50.83
2019-03-23T23:02:18.119Z,50.77
2019-03-23T23:07:21.199Z,51.77
2019-03-23T23:12:24.847Z,49.83
2019-03-23T23:17:27.934Z,50.13
2019-03-23T23:22:31.058Z,49.60
2019-03-23T23:27:34.732Z,50.20
2019-03-23T23:32:37.807Z,50.87
2019-03-23T23:37:41.837Z,50.60
2019-03-23T23:42:45.283Z,50.37
2019-03-23T23:47:48.667Z,53.03
2019-03-23T23:52:52.079Z,51.57
2019-03-23T23:57:55.401Z,51.17
